Time;durP1;ratioP1;P1;durP2;ratioP2;P2;SDS_P1;SDS_P2;PMS_P1;PMS_P2;Temp;Humidity;BMP_temperature;BMP_pressure;BME280_temperature;BME280_humidity;BME280_pressure;Samples;Min_cycle;Max_cycle;Signal;HPM_P1;HPM_P2
2023/05/08 00:00:03;;;;;;;12.75;4.20;;;14.60;99.90;;;;;;5040062;28;20056;-73
2023/05/08 00:02:30;;;;;;;17.13;5.15;;;14.50;99.90;;;;;;5028835;28;20425;-72
2023/05/08 00:04:56;;;;;;;16.73;5.15;;;14.50;99.90;;;;;;5039951;28;20099;-73
2023/05/08 00:07:21;;;;;;;17.20;4.55;;;14.40;99.90;;;;;;5039614;28;20025;-73
2023/05/08 00:09:47;;;;;;;16.35;4.32;;;14.40;99.90;;;;;;5039701;28;20435;-72
2023/05/08 00:12:13;;;;;;;22.13;6.10;;;14.40;99.90;;;;;;5038461;28;20120;-73
2023/05/08 00:14:38;;;;;;;14.75;4.57;;;14.40;99.90;;;;;;5039932;28;20105;-71
2023/05/08 00:17:04;;;;;;;15.13;4.55;;;14.50;99.90;;;;;;5039363;28;20500;-72
2023/05/08 00:19:30;;;;;;;12.25;4.65;;;14.50;99.90;;;;;;5037942;28;20053;-70
2023/05/08 00:21:55;;;;;;;10.85;4.63;;;14.50;99.90;;;;;;5039554;28;20067;-71
2023/05/08 00:24:21;;;;;;;16.30;5.90;;;14.60;99.90;;;;;;5039501;28;20029;-71
2023/05/08 00:26:47;;;;;;;12.25;4.65;;;14.60;99.90;;;;;;5039393;28;20482;-70
2023/05/08 00:29:12;;;;;;;17.98;4.63;;;14.60;99.90;;;;;;5039563;28;20433;-70
2023/05/08 00:31:38;;;;;;;22.10;4.53;;;14.60;99.90;;;;;;5039228;28;20547;-70
2023/05/08 00:34:04;;;;;;;12.52;4.13;;;14.60;99.90;;;;;;5039083;28;20040;-70
2023/05/08 00:36:29;;;;;;;18.35;5.18;;;14.60;99.90;;;;;;5039060;28;20068;-70
2023/05/08 00:38:55;;;;;;;15.65;5.50;;;14.60;99.90;;;;;;5039428;28;20037;-73
2023/05/08 00:41:21;;;;;;;19.50;5.00;;;14.60;99.90;;;;;;5039012;28;20028;-73
2023/05/08 00:43:46;;;;;;;13.75;4.85;;;14.60;99.90;;;;;;5039374;28;20414;-73
2023/05/08 00:46:12;;;;;;;18.25;5.00;;;14.50;99.90;;;;;;5038650;28;20029;-73
2023/05/08 00:48:39;;;;;;;19.45;5.53;;;14.50;99.90;;;;;;5038998;28;20108;-73
2023/05/08 00:51:07;;;;;;;13.85;4.22;;;14.50;99.90;;;;;;5038772;28;20021;-73
2023/05/08 00:53:37;;;;;;;18.23;5.05;;;14.50;99.90;;;;;;5038462;28;20026;-73
2023/05/08 00:56:04;;;;;;;10.20;4.18;;;14.50;99.90;;;;;;5038865;28;20029;-72
2023/05/08 00:58:31;;;;;;;21.73;5.95;;;14.50;99.90;;;;;;5037218;28;20083;-73
2023/05/08 01:00:58;;;;;;;16.23;5.55;;;14.50;99.90;;;;;;5038822;28;20025;-71
2023/05/08 01:03:24;;;;;;;14.85;4.97;;;14.50;99.90;;;;;;5038436;28;20026;-71
2023/05/08 01:05:50;;;;;;;14.93;4.45;;;14.50;99.90;;;;;;5038760;28;20018;-71
2023/05/08 01:08:15;;;;;;;20.75;5.03;;;14.50;99.90;;;;;;5038653;28;20104;-70
2023/05/08 01:11:09;;;;;;;18.23;5.07;;;14.50;99.90;;;;;;5038630;28;20140;-70
2023/05/08 01:13:56;;;;;;;13.77;4.53;;;14.50;99.90;;;;;;5038525;28;20113;-73
2023/05/08 01:16:37;;;;;;;17.20;5.82;;;14.50;99.90;;;;;;5038308;28;20105;-70
2023/05/08 01:19:35;;;;;;;18.58;5.47;;;14.50;99.90;;;;;;5037971;28;20075;-72
2023/05/08 01:22:41;;;;;;;14.55;4.97;;;14.40;99.90;;;;;;5044550;28;20026;-73
2023/05/08 01:25:25;;;;;;;15.70;5.15;;;14.40;99.90;;;;;;5042009;28;20026;-73
2023/05/08 01:28:31;;;;;;;15.15;5.53;;;14.50;99.90;;;;;;5038304;28;20022;-73
2023/05/08 01:31:25;;;;;;;17.00;5.13;;;14.50;99.90;;;;;;5043142;28;20040;-73
2023/05/08 01:34:05;;;;;;;17.65;5.47;;;14.50;99.90;;;;;;5037864;28;20025;-73
2023/05/08 01:36:40;;;;;;;12.50;4.87;;;14.40;99.90;;;;;;5037847;28;20022;-72
2023/05/08 01:39:21;;;;;;;21.50;4.82;;;14.40;99.90;;;;;;5037990;28;20436;-72
2023/05/08 01:41:56;;;;;;;;;;;14.40;99.90;;;;;;5038416;28;20032;-70
2023/05/08 01:44:25;;;;;;;19.48;5.18;;;14.40;99.90;;;;;;5037825;28;19905;-70
2023/05/08 01:46:51;;;;;;;17.20;4.97;;;14.40;99.90;;;;;;5037945;28;20417;-70
2023/05/08 01:49:32;;;;;;;13.60;4.57;;;14.40;99.90;;;;;;5037494;28;20029;-71
2023/05/08 01:52:04;;;;;;;18.02;4.80;;;14.40;99.90;;;;;;5037948;28;20090;-70
2023/05/08 01:54:41;;;;;;;18.58;5.30;;;14.30;99.90;;;;;;5033056;28;20386;-71
2023/05/08 01:57:09;;;;;;;24.48;5.95;;;14.30;99.90;;;;;;5037573;28;20362;-70
2023/05/08 01:59:37;;;;;;;18.17;5.20;;;14.20;99.90;;;;;;5037810;28;20030;-70
2023/05/08 02:02:05;;;;;;;19.20;5.30;;;14.20;99.90;;;;;;5037452;28;20043;-70
2023/05/08 02:04:33;;;;;;;17.77;5.18;;;14.20;99.90;;;;;;5036656;28;20037;-70
2023/05/08 02:07:00;;;;;;;24.60;5.25;;;14.20;99.90;;;;;;5036312;28;20509;-70
2023/05/08 02:09:28;;;;;;;16.88;4.68;;;14.20;99.90;;;;;;5035716;28;20021;-70
2023/05/08 02:11:55;;;;;;;21.00;5.82;;;14.20;99.90;;;;;;5037313;28;20105;-70
2023/05/08 02:14:22;;;;;;;24.58;5.75;;;14.20;99.90;;;;;;5036265;28;20116;-70
2023/05/08 02:16:50;;;;;;;17.98;5.22;;;14.20;99.90;;;;;;5037149;28;20520;-70
2023/05/08 02:19:20;;;;;;;16.52;5.15;;;14.20;99.90;;;;;;5037311;28;20017;-69
2023/05/08 02:21:48;;;;;;;17.45;5.07;;;14.20;99.90;;;;;;5037344;28;20043;-69
2023/05/08 02:24:14;;;;;;;21.25;4.97;;;14.20;99.90;;;;;;5035991;28;20025;-69
2023/05/08 02:26:42;;;;;;;25.98;5.32;;;14.20;99.90;;;;;;5033351;28;20051;-70
2023/05/08 02:29:09;;;;;;;18.88;5.68;;;14.20;99.90;;;;;;5037300;28;20108;-70
2023/05/08 02:31:37;;;;;;;22.27;5.78;;;14.30;99.90;;;;;;5037005;28;20092;-69
2023/05/08 02:34:04;;;;;;;15.30;4.72;;;14.20;99.90;;;;;;5036822;28;20107;-69
2023/05/08 02:36:30;;;;;;;20.88;5.50;;;14.20;99.90;;;;;;5036893;28;20029;-70
2023/05/08 02:38:57;;;;;;;24.30;5.55;;;14.20;99.90;;;;;;5035910;28;20028;-69
2023/05/08 02:41:28;;;;;;;15.13;5.50;;;14.20;99.90;;;;;;5036760;28;20024;-70
2023/05/08 02:43:54;;;;;;;18.73;5.80;;;14.10;99.90;;;;;;5036898;28;20028;-70
2023/05/08 02:46:47;;;;;;;26.33;6.20;;;14.10;99.90;;;;;;5036755;28;20105;-70
2023/05/08 02:49:30;;;;;;;24.85;6.35;;;14.10;99.90;;;;;;5030186;28;20025;-72
2023/05/08 02:52:06;;;;;;;19.42;6.00;;;14.10;99.90;;;;;;5036776;28;20444;-72
2023/05/08 02:54:39;;;;;;;15.13;5.15;;;14.10;99.90;;;;;;5036850;28;20018;-72
2023/05/08 02:57:49;;;;;;;17.23;6.47;;;14.10;99.90;;;;;;5036716;28;20061;-72
2023/05/08 03:00:26;;;;;;;25.38;6.70;;;14.00;99.90;;;;;;5025179;28;20038;-72
2023/05/08 03:03:32;;;;;;;19.50;6.03;;;14.00;99.90;;;;;;5034279;28;20112;-72
2023/05/08 03:06:01;;;;;;;15.30;5.18;;;14.00;99.90;;;;;;5028392;28;20490;-72
2023/05/08 03:08:33;;;;;;;16.70;6.32;;;14.00;99.90;;;;;;5035893;28;20117;-72
2023/05/08 03:11:06;;;;;;;21.65;5.57;;;14.00;99.90;;;;;;5035931;28;20034;-72
2023/05/08 03:13:35;;;;;;;21.40;7.20;;;13.90;99.90;;;;;;5036610;28;20104;-72
2023/05/08 03:16:04;;;;;;;20.60;6.57;;;13.90;99.90;;;;;;5034811;28;20041;-72
2023/05/08 03:18:40;;;;;;;14.85;4.97;;;13.80;99.90;;;;;;5036015;28;20045;-72
2023/05/08 03:21:08;;;;;;;22.40;7.40;;;13.80;99.90;;;;;;5036472;28;20104;-72
2023/05/08 03:23:35;;;;;;;20.13;5.18;;;13.80;99.90;;;;;;5036464;28;20060;-70
2023/05/08 03:26:03;;;;;;;22.23;5.30;;;13.90;99.90;;;;;;5036191;28;20010;-70
2023/05/08 03:28:30;;;;;;;26.75;6.47;;;13.80;99.90;;;;;;5036309;28;20033;-70
2023/05/08 03:30:57;;;;;;;14.88;5.30;;;13.80;99.90;;;;;;5036283;28;20022;-69
2023/05/08 03:33:25;;;;;;;15.30;4.47;;;13.80;99.90;;;;;;5034610;28;20532;-70
2023/05/08 03:35:51;;;;;;;15.98;6.07;;;13.80;99.90;;;;;;5034963;28;20497;-70
2023/05/08 03:38:17;;;;;;;20.98;5.45;;;13.80;99.90;;;;;;5034917;28;20041;-69
2023/05/08 03:40:44;;;;;;;20.67;6.13;;;13.80;99.90;;;;;;5036243;28;20033;-70
2023/05/08 03:43:10;;;;;;;20.63;5.70;;;13.80;99.90;;;;;;5034193;28;20560;-70
2023/05/08 03:45:38;;;;;;;21.85;6.65;;;13.80;99.90;;;;;;5036313;28;20397;-70
2023/05/08 03:48:06;;;;;;;18.80;5.60;;;13.80;99.90;;;;;;5035905;28;20028;-69
2023/05/08 03:50:34;;;;;;;16.83;5.60;;;13.80;99.90;;;;;;5036128;28;20049;-69
2023/05/08 03:53:00;;;;;;;19.77;7.05;;;13.80;99.90;;;;;;5036082;28;20034;-71
2023/05/08 03:55:26;;;;;;;17.48;5.22;;;13.70;99.90;;;;;;5036438;28;20504;-70
2023/05/08 03:58:30;;;;;;;22.08;5.82;;;13.70;99.90;;;;;;5035808;28;20033;-70
2023/05/08 04:01:07;;;;;;;17.45;4.97;;;13.70;99.90;;;;;;5036112;28;21338;-72
2023/05/08 04:03:55;;;;;;;22.85;5.15;;;13.70;99.90;;;;;;5025756;28;20080;-72
2023/05/08 04:06:47;;;;;;;23.08;5.80;;;13.70;99.90;;;;;;5035998;28;20024;-72
2023/05/08 04:09:18;;;;;;;16.33;5.78;;;13.70;99.90;;;;;;5045100;28;20481;-72
2023/05/08 04:11:50;;;;;;;21.98;5.65;;;13.70;99.90;;;;;;5036145;28;20117;-72
2023/05/08 04:14:20;;;;;;;16.95;5.30;;;13.70;99.90;;;;;;5035819;28;20036;-71
2023/05/08 04:16:51;;;;;;;16.80;4.97;;;13.70;99.90;;;;;;5035656;28;20026;-71
2023/05/08 04:19:26;;;;;;;19.67;5.85;;;13.70;99.90;;;;;;5034387;28;20124;-69
2023/05/08 04:21:56;;;;;;;22.02;5.80;;;13.70;99.90;;;;;;5035072;28;20029;-70
2023/05/08 04:24:23;;;;;;;22.67;5.88;;;13.70;99.90;;;;;;5035973;28;20108;-69
2023/05/08 04:26:50;;;;;;;17.90;4.97;;;13.60;99.90;;;;;;5035472;28;20061;-69
2023/05/08 04:29:17;;;;;;;19.98;5.90;;;13.60;99.90;;;;;;5039608;28;20021;-69
2023/05/08 04:31:44;;;;;;;22.23;5.25;;;13.60;99.90;;;;;;5038767;28;20033;-69
2023/05/08 04:34:10;;;;;;;35.63;7.15;;;13.70;99.90;;;;;;5039089;28;20021;-70
2023/05/08 04:36:36;;;;;;;23.48;6.95;;;13.70;99.90;;;;;;5039051;28;20030;-70
2023/05/08 04:39:02;;;;;;;20.27;5.38;;;13.70;99.90;;;;;;5039395;28;20580;-70
2023/05/08 04:41:28;;;;;;;18.73;4.47;;;13.70;99.90;;;;;;5039090;28;20117;-70
2023/05/08 04:43:54;;;;;;;15.68;4.57;;;13.70;99.90;;;;;;5039289;28;20017;-70
2023/05/08 04:46:19;;;;;;;16.27;4.70;;;13.70;99.90;;;;;;5039007;28;20421;-70
2023/05/08 04:48:45;;;;;;;23.38;6.07;;;13.70;99.90;;;;;;5038214;28;20029;-69
2023/05/08 04:51:11;;;;;;;23.92;5.53;;;13.70;99.90;;;;;;5038927;28;20073;-70
2023/05/08 04:53:36;;;;;;;14.55;5.20;;;13.70;99.90;;;;;;5037794;28;20503;-72
2023/05/08 04:56:02;;;;;;;18.25;5.57;;;13.70;99.90;;;;;;5037187;28;20025;-69
2023/05/08 04:58:28;;;;;;;25.05;5.75;;;13.70;99.90;;;;;;5038870;28;20032;-70
2023/05/08 05:00:54;;;;;;;16.73;5.93;;;13.70;99.90;;;;;;5038651;28;20018;-69
2023/05/08 05:03:19;;;;;;;18.33;5.93;;;13.70;99.90;;;;;;5038034;28;20472;-70
2023/05/08 05:05:45;;;;;;;22.70;5.82;;;13.70;99.90;;;;;;5038475;28;20026;-72
2023/05/08 05:08:11;;;;;;;14.95;5.10;;;13.70;99.90;;;;;;5038743;28;20032;-72
2023/05/08 05:10:38;;;;;;;18.63;5.03;;;13.70;99.90;;;;;;5038400;28;20021;-73
2023/05/08 05:13:04;;;;;;;20.38;4.85;;;13.70;99.90;;;;;;5038814;28;20492;-72
2023/05/08 05:15:29;;;;;;;21.48;6.57;;;13.70;99.90;;;;;;5038391;28;20049;-72
2023/05/08 05:17:55;;;;;;;16.98;5.53;;;13.70;99.90;;;;;;5033175;28;20103;-72
2023/05/08 05:20:22;;;;;;;22.30;6.35;;;13.70;99.90;;;;;;5034379;28;20118;-72
2023/05/08 05:22:48;;;;;;;15.80;5.50;;;13.80;99.90;;;;;;5038401;28;20025;-70
2023/05/08 05:25:14;;;;;;;15.43;6.00;;;13.80;99.90;;;;;;5038428;28;20030;-69
2023/05/08 05:27:39;;;;;;;19.88;5.63;;;13.80;99.90;;;;;;5037171;28;20454;-72
2023/05/08 05:30:06;;;;;;;21.67;5.88;;;13.90;99.90;;;;;;5038385;28;20052;-72
2023/05/08 05:32:32;;;;;;;13.73;5.00;;;13.90;99.90;;;;;;5038050;28;20029;-69
2023/05/08 05:34:57;;;;;;;17.67;5.25;;;14.00;99.90;;;;;;5038113;28;20029;-72
2023/05/08 05:37:23;;;;;;;18.40;5.15;;;14.00;99.90;;;;;;5038267;28;20413;-73
2023/05/08 05:39:49;;;;;;;16.15;5.43;;;14.00;99.90;;;;;;5034057;28;20018;-72
2023/05/08 05:42:14;;;;;;;15.00;5.20;;;14.00;99.90;;;;;;5037210;28;20528;-70
2023/05/08 05:44:40;;;;;;;14.63;4.28;;;14.10;99.90;;;;;;5038259;28;20022;-70
2023/05/08 05:47:08;;;;;;;16.67;4.63;;;14.20;99.90;;;;;;5037756;28;20485;-71
2023/05/08 05:49:34;;;;;;;19.17;6.30;;;14.20;99.90;;;;;;5034049;28;20467;-72
2023/05/08 05:52:00;;;;;;;15.70;5.05;;;14.30;99.90;;;;;;5036763;28;20022;-72
2023/05/08 05:54:26;;;;;;;17.17;4.93;;;14.30;99.90;;;;;;5037562;28;20033;-72
2023/05/08 05:56:51;;;;;;;13.27;4.50;;;14.30;99.90;;;;;;5037858;28;20643;-72
2023/05/08 05:59:17;;;;;;;13.10;3.88;;;14.30;99.90;;;;;;5037633;28;20100;-72
2023/05/08 06:01:43;;;;;;;17.67;4.00;;;14.30;99.90;;;;;;5036560;28;20405;-72
2023/05/08 06:04:08;;;;;;;15.52;4.93;;;14.20;99.90;;;;;;5037054;28;20021;-71
2023/05/08 06:06:34;;;;;;;11.25;4.20;;;14.10;99.90;;;;;;5037798;28;20032;-72
2023/05/08 06:09:00;;;;;;;12.30;4.25;;;14.00;99.90;;;;;;5037357;28;20506;-72
2023/05/08 06:11:26;;;;;;;12.85;4.63;;;13.90;99.90;;;;;;5036452;28;20018;-72
2023/05/08 06:13:51;;;;;;;13.80;3.55;;;13.90;99.90;;;;;;5037206;28;20029;-72
2023/05/08 06:16:19;;;;;;;11.15;3.55;;;13.80;99.90;;;;;;5037535;28;20385;-72
2023/05/08 06:18:45;;;;;;;8.85;3.22;;;13.90;99.90;;;;;;5036509;28;20382;-71
2023/05/08 06:21:10;;;;;;;11.55;3.28;;;14.00;99.90;;;;;;5036938;28;20087;-72
2023/05/08 06:23:36;;;;;;;9.07;3.35;;;14.00;99.90;;;;;;5036191;28;20021;-71
2023/05/08 06:26:02;;;;;;;9.70;3.55;;;14.20;99.90;;;;;;5037899;28;20037;-71
2023/05/08 06:28:27;;;;;;;8.27;3.85;;;14.20;99.90;;;;;;5037516;28;20021;-72
2023/05/08 06:30:53;;;;;;;9.63;3.85;;;14.30;99.90;;;;;;5037782;28;20029;-71
2023/05/08 06:33:19;;;;;;;10.55;3.13;;;14.30;99.90;;;;;;5037084;28;20056;-72
2023/05/08 06:35:47;;;;;;;12.48;4.13;;;14.30;99.90;;;;;;5037609;28;20502;-71
2023/05/08 06:38:13;;;;;;;11.63;3.63;;;14.40;99.90;;;;;;5037257;28;20081;-72
2023/05/08 06:40:43;;;;;;;9.45;3.03;;;14.40;99.90;;;;;;5036130;28;20018;-71
2023/05/08 06:43:09;;;;;;;13.23;3.47;;;14.40;99.90;;;;;;5041164;28;20021;-71
2023/05/08 06:45:35;;;;;;;10.05;3.47;;;14.40;99.90;;;;;;5037294;28;20379;-71
2023/05/08 06:48:00;;;;;;;6.93;3.15;;;14.50;99.90;;;;;;5037032;28;20083;-71
2023/05/08 06:50:26;;;;;;;9.93;4.72;;;14.50;99.90;;;;;;5035633;28;20033;-71
2023/05/08 06:52:51;;;;;;;11.93;4.60;;;14.60;99.90;;;;;;5037371;28;20029;-71
2023/05/08 06:55:17;;;;;;;9.27;3.08;;;14.70;99.90;;;;;;5037075;28;20115;-71
2023/05/08 06:57:43;;;;;;;10.48;3.40;;;14.70;99.90;;;;;;5035551;28;20073;-71
2023/05/08 07:00:09;;;;;;;8.85;2.78;;;14.70;99.90;;;;;;5037339;28;20014;-71
2023/05/08 07:02:35;;;;;;;10.35;3.03;;;14.70;99.90;;;;;;5036744;28;20026;-71
2023/05/08 07:05:01;;;;;;;10.93;3.30;;;14.90;99.90;;;;;;5037000;28;20018;-71
2023/05/08 07:07:27;;;;;;;8.20;3.28;;;15.00;99.90;;;;;;5036753;28;20041;-71
2023/05/08 07:09:53;;;;;;;10.90;2.90;;;15.10;99.90;;;;;;5036616;28;20481;-71
2023/05/08 07:12:18;;;;;;;10.10;2.88;;;15.20;99.90;;;;;;5036927;28;20025;-71
2023/05/08 07:14:44;;;;;;;7.20;2.75;;;15.20;99.90;;;;;;5037154;28;20029;-71
2023/05/08 07:17:10;;;;;;;8.60;3.53;;;15.40;99.90;;;;;;5035963;28;20045;-71
2023/05/08 07:19:36;;;;;;;7.68;3.22;;;15.50;99.90;;;;;;5035636;28;20059;-71
2023/05/08 07:22:03;;;;;;;6.63;2.95;;;15.60;99.90;;;;;;5035307;28;20022;-71
2023/05/08 07:24:28;;;;;;;5.47;2.40;;;15.80;99.90;;;;;;5037332;28;20385;-70
2023/05/08 07:26:54;;;;;;;8.15;2.40;;;15.80;99.90;;;;;;5035275;28;20108;-70
2023/05/08 07:29:20;;;;;;;8.35;2.58;;;16.00;99.90;;;;;;5035415;28;20573;-68
2023/05/08 07:31:47;;;;;;;6.97;3.70;;;16.10;99.90;;;;;;5036378;28;20478;-68
2023/05/08 07:34:13;;;;;;;7.03;3.25;;;16.20;99.90;;;;;;5036690;28;20029;-68
2023/05/08 07:36:39;;;;;;;8.57;3.38;;;16.10;99.90;;;;;;5036503;28;20080;-69
2023/05/08 07:39:05;;;;;;;8.13;2.63;;;16.10;99.90;;;;;;5036468;28;20041;-69
2023/05/08 07:41:31;;;;;;;5.80;2.90;;;16.10;99.90;;;;;;5036195;28;20056;-69
2023/05/08 07:43:56;;;;;;;8.85;2.40;;;16.10;99.90;;;;;;5034624;28;20392;-69
2023/05/08 07:46:22;;;;;;;7.07;2.47;;;16.20;99.90;;;;;;5029656;28;20025;-69
2023/05/08 07:48:48;;;;;;;6.57;2.47;;;16.20;99.90;;;;;;5020022;28;20021;-69
2023/05/08 07:51:14;;;;;;;8.07;2.78;;;16.20;99.90;;;;;;5027714;28;20036;-69
2023/05/08 07:53:40;;;;;;;7.80;2.97;;;16.20;99.90;;;;;;5033330;28;20401;-69
2023/05/08 07:56:06;;;;;;;5.07;2.78;;;16.20;99.90;;;;;;5031856;28;20029;-69
2023/05/08 07:58:32;;;;;;;4.88;2.05;;;16.30;99.90;;;;;;5034254;28;20392;-69
2023/05/08 08:00:57;;;;;;;6.13;1.90;;;16.30;99.90;;;;;;5034583;28;20116;-69
2023/05/08 08:03:23;;;;;;;8.48;2.20;;;16.40;99.90;;;;;;5037183;28;20031;-68
2023/05/08 08:05:48;;;;;;;10.02;3.17;;;16.50;99.90;;;;;;5036862;28;20079;-68
2023/05/08 08:08:14;;;;;;;9.82;2.15;;;16.70;99.90;;;;;;5038288;28;20029;-69
2023/05/08 08:10:40;;;;;;;5.55;2.38;;;16.70;99.90;;;;;;5038684;28;20040;-69
2023/05/08 08:13:06;;;;;;;18.15;3.05;;;16.70;99.90;;;;;;5037331;28;20520;-69
2023/05/08 08:15:31;;;;;;;8.02;2.92;;;16.70;99.90;;;;;;5038316;28;20034;-68
2023/05/08 08:17:57;;;;;;;5.32;2.80;;;16.80;99.90;;;;;;5037246;28;20056;-69
2023/05/08 08:20:23;;;;;;;5.40;2.03;;;17.00;99.90;;;;;;5038209;28;20044;-68
2023/05/08 08:22:48;;;;;;;6.85;2.63;;;17.10;99.90;;;;;;5038499;28;20028;-70
2023/05/08 08:25:14;;;;;;;6.78;2.42;;;17.10;99.90;;;;;;5038627;28;20057;-68
2023/05/08 08:27:40;;;;;;;3.50;2.03;;;17.30;99.90;;;;;;5037371;28;20037;-68
2023/05/08 08:30:06;;;;;;;6.88;2.67;;;17.20;99.90;;;;;;5037017;28;20024;-68
2023/05/08 08:32:32;;;;;;;8.27;2.10;;;17.30;99.90;;;;;;5038168;28;20079;-69
2023/05/08 08:34:57;;;;;;;10.95;2.10;;;17.20;99.90;;;;;;5037969;28;20112;-68
2023/05/08 08:37:25;;;;;;;6.28;2.10;;;17.10;99.90;;;;;;5036157;28;20175;-68
2023/05/08 08:39:50;;;;;;;4.85;1.90;;;17.20;99.90;;;;;;5036602;28;20018;-68
2023/05/08 08:42:16;;;;;;;9.73;2.38;;;17.40;99.90;;;;;;5038352;28;20027;-68
2023/05/08 08:44:42;;;;;;;9.68;2.15;;;17.40;99.90;;;;;;5038042;28;20028;-69
2023/05/08 08:47:12;;;;;;;4.80;1.75;;;17.30;99.90;;;;;;5037783;28;20028;-68
2023/05/08 08:49:44;;;;;;;8.40;2.40;;;17.20;99.90;;;;;;5036094;28;20033;-68
2023/05/08 08:52:44;;;;;;;9.75;2.65;;;17.20;99.90;;;;;;5037810;28;20040;-69
2023/05/08 08:55:14;;;;;;;7.13;2.45;;;17.30;99.90;;;;;;5037561;28;20080;-68
2023/05/08 08:58:10;;;;;;;6.13;2.80;;;17.50;99.90;;;;;;5037988;28;20021;-68
2023/05/08 09:00:36;;;;;;;8.10;2.95;;;17.50;99.90;;;;;;5035937;28;20033;-69
2023/05/08 09:03:06;;;;;;;4.07;2.08;;;17.60;99.90;;;;;;5035988;28;20023;-68
2023/05/08 09:05:32;;;;;;;8.40;3.10;;;17.70;99.90;;;;;;5037560;28;20052;-68
2023/05/08 09:07:59;;;;;;;7.70;2.55;;;17.60;99.90;;;;;;5036140;28;20034;-69
2023/05/08 09:10:25;;;;;;;4.05;1.85;;;17.70;99.90;;;;;;5037560;28;20401;-68
2023/05/08 09:12:51;;;;;;;9.05;2.13;;;17.80;99.90;;;;;;5037006;28;20021;-69
2023/05/08 09:15:17;;;;;;;6.82;2.42;;;18.10;99.90;;;;;;5037040;28;20022;-67
2023/05/08 09:17:42;;;;;;;10.45;2.45;;;18.40;99.90;;;;;;5037204;28;20041;-68
2023/05/08 09:20:09;;;;;;;5.50;2.55;;;18.50;99.90;;;;;;5035826;28;20032;-68
2023/05/08 09:22:37;;;;;;;8.73;1.85;;;18.70;99.90;;;;;;5037594;28;20107;-68
2023/05/08 09:25:04;;;;;;;9.68;2.15;;;18.60;99.90;;;;;;5037249;28;20520;-68
2023/05/08 09:27:30;;;;;;;6.90;2.20;;;18.40;99.90;;;;;;5037096;28;20060;-68
2023/05/08 09:30:10;;;;;;;5.35;1.95;;;18.30;99.90;;;;;;5035689;28;20035;-68
2023/05/08 09:32:38;;;;;;;8.75;2.15;;;18.20;99.90;;;;;;5035622;28;20108;-68
2023/05/08 09:35:05;;;;;;;5.28;2.08;;;18.10;99.90;;;;;;5035368;28;20016;-68
2023/05/08 09:37:31;;;;;;;7.40;1.92;;;18.20;99.90;;;;;;5036670;28;20037;-68
2023/05/08 09:40:32;;;;;;;4.18;1.50;;;18.40;99.90;;;;;;5038321;28;20105;-68
2023/05/08 09:43:12;;;;;;;3.33;1.63;;;18.60;99.90;;;;;;5056302;28;20089;-69
2023/05/08 09:45:38;;;;;;;5.90;2.65;;;18.70;99.90;;;;;;5035033;28;20044;-69
2023/05/08 09:48:05;;;;;;;7.50;2.13;;;18.80;99.90;;;;;;5037979;28;20026;-68
2023/05/08 09:50:32;;;;;;;5.43;2.28;;;18.70;99.90;;;;;;5038310;28;20037;-68
2023/05/08 09:52:58;;;;;;;6.57;2.40;;;18.60;99.90;;;;;;5038180;28;20045;-70
2023/05/08 09:55:23;;;;;;;3.63;1.90;;;18.40;99.90;;;;;;5038395;28;20418;-70
2023/05/08 09:57:58;;;;;;;7.88;2.45;;;18.10;99.90;;;;;;5033047;28;20109;-69
2023/05/08 10:00:25;;;;;;;6.78;2.03;;;17.90;99.90;;;;;;5029839;28;20104;-68
2023/05/08 10:03:01;;;;;;;5.35;2.13;;;17.80;99.90;;;;;;5022941;28;20055;-68
2023/05/08 10:05:28;;;;;;;3.38;1.90;;;18.10;99.90;;;;;;5020803;28;20022;-69
2023/05/08 10:07:54;;;;;;;5.28;2.67;;;18.50;99.90;;;;;;5023905;28;20061;-69
2023/05/08 10:10:29;;;;;;;7.63;2.60;;;18.70;99.90;;;;;;5038082;28;20111;-69
2023/05/08 10:12:56;;;;;;;10.98;1.95;;;19.10;99.90;;;;;;5037918;28;20026;-69
2023/05/08 10:15:24;;;;;;;8.10;1.98;;;19.00;99.90;;;;;;5037726;28;20022;-69
2023/05/08 10:17:56;;;;;;;6.78;2.30;;;19.10;99.90;;;;;;5037208;28;20041;-68
2023/05/08 10:20:27;;;;;;;10.32;2.08;;;19.20;99.90;;;;;;5037668;28;20036;-68
2023/05/08 10:22:55;;;;;;;7.07;2.30;;;19.30;99.90;;;;;;5037704;28;20070;-68
2023/05/08 10:25:22;;;;;;;2.95;1.38;;;19.30;99.90;;;;;;5035710;28;20079;-69
2023/05/08 10:28:05;;;;;;;4.13;1.80;;;19.00;99.90;;;;;;5037474;28;20490;-68
2023/05/08 10:30:36;;;;;;;6.10;1.88;;;19.00;99.90;;;;;;5036831;28;20033;-67
2023/05/08 10:33:07;;;;;;;5.72;2.25;;;19.30;99.90;;;;;;5037189;28;20018;-67
2023/05/08 10:35:33;;;;;;;4.88;1.92;;;19.30;99.90;;;;;;5036198;28;20033;-68
2023/05/08 10:38:00;;;;;;;4.15;1.75;;;19.20;99.90;;;;;;5037282;28;20033;-67
2023/05/08 10:40:25;;;;;;;5.20;1.58;;;19.40;99.90;;;;;;5037407;28;20029;-68
2023/05/08 10:42:51;;;;;;;4.68;1.73;;;19.60;99.90;;;;;;5036036;28;20542;-68
2023/05/08 10:45:17;;;;;;;5.18;1.80;;;19.70;99.90;;;;;;5037416;28;20021;-68
2023/05/08 10:48:08;;;;;;;7.88;2.03;;;19.60;99.90;;;;;;5035689;28;20021;-68
2023/05/08 10:50:39;;;;;;;5.93;2.55;;;19.30;99.90;;;;;;5035966;28;20036;-68
2023/05/08 10:53:14;;;;;;;9.20;1.98;;;19.20;99.90;;;;;;5037156;28;20029;-68
2023/05/08 10:55:41;;;;;;;4.85;1.95;;;19.10;99.90;;;;;;5037129;28;20027;-68
2023/05/08 10:58:11;;;;;;;7.97;2.00;;;19.30;99.90;;;;;;5037091;28;20018;-68
2023/05/08 11:01:06;;;;;;;3.90;1.70;;;19.30;99.90;;;;;;5037195;28;20025;-68
2023/05/08 11:03:37;;;;;;;10.73;1.92;;;19.30;99.90;;;;;;5028836;28;20263;-68
2023/05/08 11:06:03;;;;;;;10.00;2.88;;;19.30;99.90;;;;;;5035619;28;20022;-67
2023/05/08 11:08:30;;;;;;;4.43;1.83;;;19.30;99.90;;;;;;5037250;28;20040;-68
2023/05/08 11:10:58;;;;;;;4.38;1.77;;;19.60;99.90;;;;;;5036805;28;20038;-68
2023/05/08 11:13:35;;;;;;;3.03;1.77;;;19.80;99.90;;;;;;5037246;28;20083;-68
2023/05/08 11:16:01;;;;;;;4.10;1.83;;;20.00;99.90;;;;;;5034893;28;20398;-68
2023/05/08 11:18:28;;;;;;;3.08;1.88;;;20.10;99.90;;;;;;5036394;28;20037;-68
2023/05/08 11:20:58;;;;;;;6.07;2.15;;;20.00;99.90;;;;;;5034798;28;20026;-68
2023/05/08 11:23:25;;;;;;;4.78;1.58;;;20.00;99.90;;;;;;5029873;28;20075;-68
2023/05/08 11:26:11;;;;;;;4.15;1.50;;;19.90;99.90;;;;;;5033346;28;20017;-68
2023/05/08 11:28:38;;;;;;;5.35;2.00;;;19.90;99.90;;;;;;5033794;28;20101;-67
2023/05/08 11:31:05;;;;;;;4.15;1.80;;;20.00;99.90;;;;;;5036535;28;20033;-68
2023/05/08 11:33:37;;;;;;;5.93;2.17;;;20.10;99.90;;;;;;5036371;28;20421;-68
2023/05/08 11:36:06;;;;;;;6.85;2.40;;;20.10;99.90;;;;;;5037235;28;20037;-68
2023/05/08 11:38:36;;;;;;;6.93;1.77;;;20.20;99.90;;;;;;5040296;28;20156;-67
2023/05/08 11:41:06;;;;;;;4.30;1.90;;;20.20;99.90;;;;;;5036879;28;20018;-67
2023/05/08 11:43:32;;;;;;;2.90;1.55;;;20.50;99.90;;;;;;5035528;28;20056;-68
2023/05/08 11:46:13;;;;;;;4.18;2.00;;;20.70;99.90;;;;;;5037933;28;20520;-68
2023/05/08 11:48:39;;;;;;;6.03;1.80;;;20.60;99.90;;;;;;5024235;28;20049;-68
2023/05/08 11:51:05;;;;;;;5.88;1.77;;;20.90;99.90;;;;;;5024973;28;20550;-68
2023/05/08 11:53:31;;;;;;;6.70;1.70;;;21.10;99.90;;;;;;5037554;28;20025;-68
2023/05/08 11:55:58;;;;;;;5.20;1.50;;;21.20;99.90;;;;;;5039963;28;20090;-68
2023/05/08 11:58:24;;;;;;;3.92;1.85;;;21.20;99.90;;;;;;5039661;28;20025;-68
2023/05/08 12:00:50;;;;;;;4.53;1.52;;;21.20;99.90;;;;;;5040073;28;20085;-68
2023/05/08 12:03:21;;;;;;;5.88;1.98;;;21.30;99.90;;;;;;5039690;28;20568;-68
2023/05/08 12:05:49;;;;;;;7.28;1.50;;;21.10;99.90;;;;;;5040344;28;20028;-68
2023/05/08 12:08:16;;;;;;;4.68;1.98;;;21.00;99.90;;;;;;5040148;28;20030;-68
2023/05/08 12:10:45;;;;;;;3.65;1.60;;;21.10;99.90;;;;;;5038872;28;20033;-68
2023/05/08 12:13:28;;;;;;;3.65;1.70;;;21.10;99.90;;;;;;5040254;28;20464;-68
2023/05/08 12:15:55;;;;;;;4.25;1.80;;;21.00;99.90;;;;;;5040010;28;20437;-68
2023/05/08 12:18:22;;;;;;;10.20;2.00;;;21.00;99.90;;;;;;5039473;28;20053;-68
2023/05/08 12:21:06;;;;;;;4.68;1.60;;;20.90;99.90;;;;;;5040197;28;20048;-68
2023/05/08 12:23:32;;;;;;;15.35;2.65;;;20.70;99.90;;;;;;5039866;28;20049;-68
2023/05/08 12:25:59;;;;;;;6.20;1.88;;;20.40;99.90;;;;;;5040065;28;20033;-68
2023/05/08 12:28:25;;;;;;;3.83;1.50;;;20.20;99.90;;;;;;5039861;28;20079;-68
2023/05/08 12:30:50;;;;;;;7.55;2.88;;;20.10;99.90;;;;;;5039712;28;20048;-68
2023/05/08 12:33:17;;;;;;;3.70;1.83;;;20.20;99.90;;;;;;5037303;28;20025;-68
2023/05/08 12:35:43;;;;;;;4.22;1.83;;;20.20;99.90;;;;;;5039968;28;20061;-68
2023/05/08 12:38:09;;;;;;;10.63;2.33;;;20.30;99.90;;;;;;5039461;28;20038;-68
2023/05/08 12:40:51;;;;;;;6.07;2.08;;;20.70;99.90;;;;;;5039634;28;20038;-68
2023/05/08 12:43:17;;;;;;;7.00;1.98;;;21.10;99.90;;;;;;5039645;28;20021;-68
2023/05/08 12:45:43;;;;;;;5.70;1.85;;;21.10;99.90;;;;;;5039836;28;20026;-68
2023/05/08 12:48:13;;;;;;;5.50;2.05;;;20.80;99.90;;;;;;5038469;28;20482;-68
2023/05/08 12:50:41;;;;;;;5.63;1.80;;;20.80;99.90;;;;;;5039599;28;20543;-68